Time;durP1;ratioP1;P1;durP2;ratioP2;P2;SDS_P1;SDS_P2;PMS_P1;PMS_P2;Temp;Humidity;BMP_temperature;BMP_pressure;BME280_temperature;BME280_humidity;BME280_pressure;Samples;Min_cycle;Max_cycle;Signal;HPM_P1;HPM_P2
2023/11/27 19:58:48;;;;;;;20.60;17.00;;;;;;;0.18;86.00;101053.80;104839;1295;558149;-76
2023/11/27 20:01:16;;;;;;;23.70;17.70;;;;;;;1.48;77.48;101053.30;106334;1280;25684;-75
2023/11/27 20:03:44;;;;;;;20.00;17.00;;;;;;;1.81;75.70;101054.10;105655;1277;1002450;-76
2023/11/27 20:06:11;;;;;;;20.70;16.20;;;;;;;2.15;74.21;101054.72;106413;1280;25396;-76
2023/11/27 20:08:39;;;;;;;18.90;16.50;;;;;;;2.30;73.22;101055.14;106534;1275;25396;-75
2023/11/27 20:11:07;;;;;;;19.50;16.20;;;;;;;2.42;72.81;101054.30;106399;1272;379692;-75
2023/11/27 20:13:42;;;;;;;15.30;13.40;;;;;;;2.53;72.46;101061.84;106745;1267;22531;-75
2023/11/27 20:16:10;;;;;;;14.30;12.80;;;;;;;2.62;72.07;101063.01;106684;1273;25262;-75
2023/11/27 20:18:37;;;;;;;14.60;11.70;;;;;;;2.69;71.73;101067.39;106779;1260;22532;-75
2023/11/27 20:21:04;;;;;;;13.20;10.70;;;;;;;2.76;71.54;101071.79;107073;1272;22557;-76
2023/11/27 20:23:32;;;;;;;13.00;10.50;;;;;;;2.84;71.02;101070.89;107020;1270;22527;-75
2023/11/27 20:25:59;;;;;;;13.00;11.50;;;;;;;2.92;70.62;101073.56;106373;1254;1002873;-76
2023/11/27 20:28:26;;;;;;;14.90;10.90;;;;;;;3.02;70.00;101076.11;106928;1270;22527;-75
2023/11/27 20:30:54;;;;;;;14.10;10.70;;;;;;;3.09;70.01;101079.13;106975;1268;25366;-75
2023/11/27 20:33:41;;;;;;;12.60;9.90;;;;;;;3.16;69.72;101076.12;106171;1267;1003977;-76
2023/11/27 20:36:09;;;;;;;12.60;9.80;;;;;;;3.21;69.50;101077.75;107091;1267;23005;-75
2023/11/27 20:38:36;;;;;;;12.10;9.80;;;;;;;3.25;69.44;101078.99;106211;1254;1002935;-76
2023/11/27 20:41:03;;;;;;;11.00;8.30;;;;;;;3.30;68.96;101073.39;107142;1257;25345;-76
2023/11/27 20:43:30;;;;;;;9.90;8.40;;;;;;;3.35;69.12;101075.00;106810;1273;22600;-75
2023/11/27 20:45:58;;;;;;;10.20;8.70;;;;;;;3.37;68.78;101073.14;106195;1256;1002824;-76
2023/11/27 20:48:28;;;;;;;9.20;8.00;;;;;;;3.39;68.74;101073.34;106944;1268;25445;-76
2023/11/27 20:50:54;;;;;;;10.80;8.30;;;;;;;3.41;68.11;101073.54;107167;1256;25349;-77
2023/11/27 20:53:21;;;;;;;9.20;7.90;;;;;;;3.41;68.13;101073.20;106952;1267;25253;-76
2023/11/27 20:55:49;;;;;;;10.00;9.00;;;;;;;3.43;68.12;101075.09;107085;1268;24606;-77
2023/11/27 20:58:20;;;;;;;9.60;8.40;;;;;;;3.45;68.03;101075.98;107192;1254;24354;-76
2023/11/27 21:00:47;;;;;;;9.40;8.40;;;;;;;3.46;67.39;101080.80;107031;1257;25523;-76
2023/11/27 21:03:15;;;;;;;10.30;9.10;;;;;;;3.48;66.98;101076.54;106947;1259;22559;-76
2023/11/27 21:05:45;;;;;;;9.00;8.00;;;;;;;3.49;67.18;101078.42;106857;1260;22675;-76
2023/11/27 21:08:13;;;;;;;9.50;7.70;;;;;;;3.49;67.16;101074.31;107010;1257;25410;-76
2023/11/27 21:10:40;;;;;;;9.70;8.50;;;;;;;3.52;67.07;101073.50;107118;1257;25410;-76
2023/11/27 21:13:07;;;;;;;8.90;7.80;;;;;;;3.55;66.70;101072.66;107050;1264;24290;-76
2023/11/27 21:15:34;;;;;;;8.10;7.30;;;;;;;3.56;66.75;101074.39;106772;1275;25360;-76
2023/11/27 21:18:02;;;;;;;9.20;8.10;;;;;;;3.59;66.60;101077.68;107111;1265;22551;-76
2023/11/27 21:20:29;;;;;;;9.60;8.10;;;;;;;3.78;66.17;101083.41;106412;1257;1003713;-76
2023/11/27 21:22:56;;;;;;;9.70;8.50;;;;;;;3.85;65.47;101085.36;107131;1269;25428;-76
2023/11/27 21:25:23;;;;;;;9.60;8.30;;;;;;;3.77;65.78;101083.39;106146;1256;1003661;-76
2023/11/27 21:27:52;;;;;;;10.40;8.00;;;;;;;3.67;65.81;101086.19;107164;1254;25334;-76
2023/11/27 21:30:19;;;;;;;9.50;8.50;;;;;;;3.65;65.71;101089.42;107088;1254;22540;-76
2023/11/27 21:32:46;;;;;;;9.60;8.00;;;;;;;3.65;65.81;101084.61;107063;1257;25334;-76
2023/11/27 21:35:15;;;;;;;10.40;8.90;;;;;;;3.64;65.71;101083.56;107210;1257;25425;-76
2023/11/27 21:37:42;;;;;;;10.10;8.60;;;;;;;3.63;65.29;101084.59;106954;1258;22549;-76
2023/11/27 21:40:10;;;;;;;9.40;8.20;;;;;;;3.66;65.27;101088.74;107148;1253;25327;-76
2023/11/27 21:42:38;;;;;;;10.10;8.30;;;;;;;3.64;65.03;101083.41;106425;1256;1002915;-76
2023/11/27 21:45:08;;;;;;;10.60;8.30;;;;;;;3.64;64.97;101083.58;106118;1269;1003676;-76
2023/11/27 21:47:37;;;;;;;10.40;8.60;;;;;;;3.81;64.18;101084.29;106890;1257;25413;-75
2023/11/27 21:50:06;;;;;;;10.60;9.30;;;;;;;3.88;63.58;101082.83;106862;1260;25498;-76
2023/11/27 21:52:33;;;;;;;10.50;7.90;;;;;;;3.91;63.45;101081.48;106735;1259;24275;-76
2023/11/27 21:55:00;;;;;;;9.60;8.30;;;;;;;3.94;63.27;101086.30;106881;1257;25425;-76
2023/11/27 21:57:27;;;;;;;9.20;8.00;;;;;;;3.93;63.04;101087.85;106788;1256;25493;-76
2023/11/27 21:59:54;;;;;;;9.10;8.20;;;;;;;3.91;62.99;101089.21;106034;1266;1003056;-76
2023/11/27 22:02:23;;;;;;;8.80;7.50;;;;;;;3.90;62.84;101087.13;106742;1257;22608;-75
2023/11/27 22:04:51;;;;;;;10.90;8.00;;;;;;;3.89;62.60;101090.20;106704;1267;24378;-76
2023/11/27 22:07:18;;;;;;;9.50;7.90;;;;;;;3.92;62.53;101085.95;105761;1264;1003073;-75
2023/11/27 22:09:46;;;;;;;10.70;8.30;;;;;;;3.85;62.31;101087.76;106463;1275;25387;-75
2023/11/27 22:12:14;;;;;;;9.70;7.30;;;;;;;3.92;62.12;101083.20;106709;1262;25284;-76
2023/11/27 22:14:41;;;;;;;10.40;7.80;;;;;;;3.93;61.82;101083.05;106450;1259;25542;-76
2023/11/27 22:17:08;;;;;;;9.50;7.60;;;;;;;3.88;61.82;101081.98;105605;1262;1003273;-76
2023/11/27 22:19:36;;;;;;;10.70;8.70;;;;;;;3.73;62.23;101085.06;106683;1270;24224;-76
2023/11/27 22:22:02;;;;;;;9.20;7.60;;;;;;;3.69;61.79;101081.26;106753;1273;22526;-76
2023/11/27 22:24:29;;;;;;;10.30;8.20;;;;;;;3.67;61.56;101082.23;106154;1258;1003753;-75
2023/11/27 22:26:57;;;;;;;10.00;8.20;;;;;;;3.65;61.27;101083.25;106842;1258;23005;-76
2023/11/27 22:29:23;;;;;;;13.70;9.10;;;;;;;3.65;60.76;101086.67;106750;1259;22540;-75
2023/11/27 22:31:51;;;;;;;11.00;8.70;;;;;;;3.63;60.20;101084.24;106778;1259;22529;-75
2023/11/27 22:34:18;;;;;;;10.80;8.20;;;;;;;3.61;59.58;101082.17;106177;1255;1002897;-75
2023/11/27 22:36:45;;;;;;;11.60;8.50;;;;;;;3.60;59.10;101078.55;106772;1261;22534;-75
2023/11/27 22:39:12;;;;;;;9.80;8.20;;;;;;;3.60;58.62;101085.42;107117;1252;22533;-75
2023/11/27 22:41:43;;;;;;;10.70;7.60;;;;;;;3.58;58.44;101086.94;106953;1255;25297;-76
2023/11/27 22:44:10;;;;;;;10.20;7.70;;;;;;;3.52;58.16;101087.73;106922;1259;22524;-76
2023/11/27 22:46:39;;;;;;;10.40;8.60;;;;;;;3.42;57.93;101087.09;107203;1256;23433;-75
2023/11/27 22:49:08;;;;;;;13.40;9.30;;;;;;;3.35;57.90;101084.43;106988;1256;25561;-76
2023/11/27 22:51:35;;;;;;;11.00;9.30;;;;;;;3.30;57.92;101081.27;106436;1262;22530;-75
2023/11/27 22:54:03;;;;;;;17.50;12.50;;;;;;;3.27;58.10;101081.77;106654;1274;25424;-75
2023/11/27 22:56:30;;;;;;;14.60;12.70;;;;;;;3.25;58.03;101080.88;106747;1256;25492;-75
2023/11/27 22:58:59;;;;;;;11.30;10.10;;;;;;;3.25;58.02;101080.36;107041;1264;24216;-75
2023/11/27 23:01:41;;;;;;;13.10;9.30;;;;;;;3.22;57.82;101077.56;106754;1260;24421;-75
2023/11/27 23:04:08;;;;;;;11.30;9.20;;;;;;;3.18;57.47;101084.20;106275;1253;1003020;-75
2023/11/27 23:06:35;;;;;;;11.20;9.10;;;;;;;3.14;57.43;101082.26;106911;1257;22612;-76
2023/11/27 23:09:07;;;;;;;10.50;9.00;;;;;;;3.08;57.55;101082.71;106812;1253;22887;-75
2023/11/27 23:11:34;;;;;;;13.20;10.80;;;;;;;3.07;57.91;101084.08;106912;1252;25403;-75
2023/11/27 23:14:01;;;;;;;12.40;10.90;;;;;;;3.13;57.98;101087.23;106939;1257;25243;-75
2023/11/27 23:16:29;;;;;;;13.50;11.70;;;;;;;3.18;58.15;101087.98;106970;1254;25363;-75
2023/11/27 23:18:56;;;;;;;12.70;10.10;;;;;;;3.22;58.10;101087.88;106969;1255;25358;-74
2023/11/27 23:21:23;;;;;;;11.50;9.70;;;;;;;3.23;58.14;101092.85;106891;1257;22628;-75
2023/11/27 23:23:49;;;;;;;10.90;8.70;;;;;;;3.24;58.16;101090.46;106378;1255;1002865;-75
2023/11/27 23:26:16;;;;;;;13.80;10.50;;;;;;;3.24;57.94;101085.33;107012;1257;24073;-75
2023/11/27 23:28:43;;;;;;;14.10;11.00;;;;;;;3.27;58.08;101086.57;107265;1252;22540;-74
2023/11/27 23:31:11;;;;;;;12.90;9.70;;;;;;;3.31;58.15;101085.76;106909;1255;25379;-76
2023/11/27 23:33:37;;;;;;;17.10;10.20;;;;;;;3.36;58.10;101090.61;107149;1254;26631;-74
2023/11/27 23:36:06;;;;;;;13.10;9.70;;;;;;;3.40;57.94;101094.77;107110;1265;24251;-75
2023/11/27 23:38:34;;;;;;;13.50;9.40;;;;;;;3.45;57.58;101089.35;107082;1258;25370;-75
2023/11/27 23:41:01;;;;;;;10.50;8.80;;;;;;;3.48;57.62;101088.02;106201;1255;1002925;-75
2023/11/27 23:43:29;;;;;;;11.90;9.10;;;;;;;3.49;57.30;101090.77;107172;1260;25335;-74
2023/11/27 23:45:56;;;;;;;9.70;8.70;;;;;;;3.51;57.15;101088.56;106173;1255;1002838;-74
2023/11/27 23:48:23;;;;;;;10.90;8.90;;;;;;;3.52;56.77;101086.18;106999;1256;25351;-75
2023/11/27 23:50:50;;;;;;;10.10;8.40;;;;;;;3.51;56.79;101087.37;106821;1260;25348;-75
2023/11/27 23:53:17;;;;;;;9.80;8.40;;;;;;;3.51;56.53;101089.25;106971;1254;22527;-74
2023/11/27 23:55:44;;;;;;;9.20;8.30;;;;;;;3.50;55.98;101085.30;106024;1273;1003723;-75
2023/11/27 23:58:11;;;;;;;9.60;8.40;;;;;;;3.47;55.91;101080.12;107042;1256;25508;-74
